Time;durP1;ratioP1;P1;durP2;ratioP2;P2;SDS_P1;SDS_P2;PMS_P1;PMS_P2;Temp;Humidity;BMP_temperature;BMP_pressure;BME280_temperature;BME280_humidity;BME280_pressure;Samples;Min_cycle;Max_cycle;Signal;HPM_P1;HPM_P2
2022/10/02 00:01:10;;;;;;;8.43;2.05;;;;;;;11.61;100.00;99258.69;5139555;27;20293;-77
2022/10/02 00:03:41;;;;;;;9.88;1.88;;;;;;;11.50;100.00;99242.81;5151030;27;20039;-77
2022/10/02 00:06:14;;;;;;;7.28;2.65;;;;;;;11.48;100.00;99232.09;5146661;27;20043;-77
2022/10/02 00:08:43;;;;;;;9.98;1.67;;;;;;;11.38;100.00;99250.63;5152987;27;20043;-77
2022/10/02 00:11:16;;;;;;;7.40;1.58;;;;;;;11.63;100.00;99272.94;5146020;27;20064;-77
2022/10/02 00:13:46;;;;;;;11.98;2.25;;;;;;;11.60;100.00;99267.88;5142786;27;20043;-77
2022/10/02 00:16:22;;;;;;;6.07;1.90;;;;;;;11.55;100.00;99283.94;5140852;27;20045;-77
2022/10/02 00:18:50;;;;;;;6.05;1.85;;;;;;;11.38;100.00;99266.97;5144824;27;20082;-77
2022/10/02 00:21:30;;;;;;;8.85;2.20;;;;;;;11.38;100.00;99280.56;5150146;27;20117;-77
2022/10/02 00:23:59;;;;;;;9.10;1.80;;;;;;;11.51;100.00;99296.25;5149663;27;20054;-76
2022/10/02 00:26:31;;;;;;;9.88;2.00;;;;;;;11.60;100.00;99284.22;5148760;27;20042;-77
2022/10/02 00:29:09;;;;;;;8.63;1.95;;;;;;;11.49;100.00;99274.66;5142379;27;20092;-77
2022/10/02 00:31:54;;;;;;;9.23;2.47;;;;;;;11.74;100.00;99278.94;5145442;27;20049;-77
2022/10/02 00:34:33;;;;;;;6.32;1.55;;;;;;;11.52;100.00;99265.25;5137459;27;20053;-76
2022/10/02 00:37:10;;;;;;;8.70;1.95;;;;;;;11.54;100.00;99260.47;5147315;27;20065;-76
2022/10/02 00:39:51;;;;;;;7.38;2.00;;;;;;;11.54;100.00;99286.84;5135064;27;20064;-76
2022/10/02 00:42:49;;;;;;;9.32;2.38;;;;;;;11.62;100.00;99276.72;5137480;27;20038;-77
2022/10/02 00:45:40;;;;;;;10.80;2.50;;;;;;;11.65;100.00;99286.38;5137403;27;20503;-77
2022/10/02 00:48:22;;;;;;;7.05;2.63;;;;;;;11.68;100.00;99267.78;5143515;27;20054;-76
2022/10/02 00:50:57;;;;;;;10.15;2.55;;;;;;;11.65;100.00;99284.50;5140049;27;20046;-76
2022/10/02 00:53:33;;;;;;;6.05;2.45;;;;;;;11.55;100.00;99283.94;5145016;27;20046;-76
2022/10/02 00:56:19;;;;;;;6.50;2.20;;;;;;;11.53;100.00;99264.22;5147896;27;20051;-76
2022/10/02 00:58:59;;;;;;;9.50;2.38;;;;;;;11.47;100.00;99263.13;5145393;27;20047;-77
2022/10/02 01:01:28;;;;;;;;;;;;;;;11.59;100.00;99290.72;5145033;27;20042;-76
2022/10/02 01:03:57;;;;;;;10.32;1.90;;;;;;;11.46;100.00;99268.75;5149300;27;19919;-77
2022/10/02 01:06:26;;;;;;;6.72;1.88;;;;;;;11.46;100.00;99285.06;5148578;27;20039;-76
2022/10/02 01:08:52;;;;;;;11.25;1.92;;;;;;;11.45;100.00;99284.22;5143718;27;20072;-74
2022/10/02 01:11:20;;;;;;;14.55;2.00;;;;;;;11.41;100.00;99285.66;5149927;27;20043;-75
2022/10/02 01:13:48;;;;;;;9.43;2.35;;;;;;;11.56;100.00;99304.72;5141057;27;20070;-77
2022/10/02 01:16:15;;;;;;;8.95;1.70;;;;;;;11.51;100.00;99283.47;5135577;27;20043;-76
2022/10/02 01:18:44;;;;;;;8.05;1.55;;;;;;;11.44;100.00;99284.41;5143992;27;20409;-76
2022/10/02 01:21:16;;;;;;;6.35;1.70;;;;;;;11.42;100.00;99284.59;5141461;27;20566;-76
2022/10/02 01:23:51;;;;;;;12.35;2.33;;;;;;;11.45;100.00;99278.78;5142398;27;20126;-76
2022/10/02 01:26:19;;;;;;;7.68;1.60;;;;;;;11.36;100.00;99266.28;5140668;27;20073;-76
2022/10/02 01:28:45;;;;;;;4.45;1.48;;;;;;;11.38;100.00;99277.84;5143988;27;20469;-76
2022/10/02 01:31:14;;;;;;;11.75;1.70;;;;;;;11.47;100.00;99305.81;5148443;27;20043;-76
2022/10/02 01:33:42;;;;;;;9.60;2.38;;;;;;;11.58;100.00;99305.34;5146455;27;20435;-76
2022/10/02 01:36:09;;;;;;;6.38;1.70;;;;;;;11.69;100.00;99310.31;5139621;27;20047;-76
2022/10/02 01:38:37;;;;;;;12.15;2.20;;;;;;;11.69;100.00;99320.38;5145351;27;20053;-76
2022/10/02 01:41:03;;;;;;;9.82;1.92;;;;;;;11.52;100.00;99293.31;5144695;27;20510;-76
2022/10/02 01:43:35;;;;;;;11.50;2.88;;;;;;;11.47;100.00;99295.78;5141918;27;20039;-76
2022/10/02 01:46:15;;;;;;;6.63;1.70;;;;;;;11.50;100.00;99289.09;5142814;27;20058;-76
2022/10/02 01:48:45;;;;;;;;;;;;;;;11.60;100.00;99305.16;5145653;27;20488;-75
2022/10/02 01:51:38;;;;;;;5.75;1.42;;;;;;;11.48;100.00;99326.56;5144250;27;19923;-76
2022/10/02 01:54:17;;;;;;;8.13;2.53;;;;;;;11.34;100.00;99307.31;5148165;27;20045;-77
2022/10/02 01:56:53;;;;;;;6.25;2.00;;;;;;;11.44;100.00;99315.22;5141701;27;20391;-77
2022/10/02 01:59:32;;;;;;;8.65;1.75;;;;;;;11.40;100.00;99286.66;5144041;27;20043;-76
2022/10/02 02:02:11;;;;;;;10.95;1.90;;;;;;;11.42;100.00;99298.19;5147938;27;20046;-76
2022/10/02 02:04:43;;;;;;;7.82;1.95;;;;;;;11.48;100.00;99316.50;5147104;27;20095;-76
2022/10/02 02:07:19;;;;;;;7.65;1.70;;;;;;;11.40;100.00;99322.06;5145841;27;20582;-76
2022/10/02 02:09:56;;;;;;;5.13;1.52;;;;;;;11.27;100.00;99297.34;5147900;27;20056;-76
2022/10/02 02:12:30;;;;;;;8.07;1.77;;;;;;;11.31;100.00;99296.78;5138612;27;20058;-76
2022/10/02 02:15:01;;;;;;;7.20;1.92;;;;;;;11.35;100.00;99319.06;5148054;27;20047;-76
2022/10/02 02:17:34;;;;;;;7.82;1.52;;;;;;;11.25;100.00;99302.16;5146584;27;20047;-77
2022/10/02 02:20:05;;;;;;;8.80;1.80;;;;;;;11.20;100.00;99305.44;5141498;27;20482;-76
2022/10/02 02:22:35;;;;;;;8.35;1.73;;;;;;;11.18;100.00;99302.03;5148311;27;20051;-77
2022/10/02 02:25:06;;;;;;;13.75;1.90;;;;;;;11.24;100.00;99306.72;5138754;27;20047;-76
2022/10/02 02:27:38;;;;;;;11.15;1.65;;;;;;;11.13;100.00;99299.88;5140667;27;20043;-76
2022/10/02 02:30:10;;;;;;;6.45;1.65;;;;;;;11.24;100.00;99312.16;5141409;27;20042;-76
2022/10/02 02:32:41;;;;;;;9.85;1.70;;;;;;;11.29;100.00;99320.63;5137612;27;20057;-77
2022/10/02 02:35:14;;;;;;;8.20;1.75;;;;;;;11.36;100.00;99306.28;5147531;27;20043;-76
2022/10/02 02:37:42;;;;;;;8.70;1.90;;;;;;;11.21;100.00;99287.22;5140605;27;20478;-76
2022/10/02 02:40:13;;;;;;;9.27;1.80;;;;;;;11.26;100.00;99301.97;5146249;27;20073;-77
2022/10/02 02:42:43;;;;;;;7.53;1.90;;;;;;;11.37;100.00;99316.16;5135524;27;20459;-77
2022/10/02 02:45:15;;;;;;;8.25;1.65;;;;;;;11.29;100.00;99301.59;5144467;27;20420;-77
2022/10/02 02:47:47;;;;;;;7.95;2.33;;;;;;;11.34;100.00;99311.91;5131325;27;20051;-76
2022/10/02 02:50:20;;;;;;;7.82;1.98;;;;;;;11.29;100.00;99301.59;5148950;27;20045;-76
2022/10/02 02:52:53;;;;;;;12.32;2.00;;;;;;;11.38;100.00;99309.66;5138344;27;20047;-76
2022/10/02 02:55:23;;;;;;;9.43;1.77;;;;;;;11.41;100.00;99303.84;5143861;27;20034;-76
2022/10/02 02:57:55;;;;;;;7.97;1.83;;;;;;;11.55;100.00;99322.06;5149510;27;20046;-76
2022/10/02 03:00:25;;;;;;;10.50;1.60;;;;;;;11.41;100.00;99293.81;5152089;27;20053;-77
2022/10/02 03:02:53;;;;;;;6.60;2.85;;;;;;;11.54;100.00;99322.25;5139350;27;20055;-77
2022/10/02 03:05:21;;;;;;;11.48;1.88;;;;;;;11.43;100.00;99305.34;5150074;27;20035;-75
2022/10/02 03:07:52;;;;;;;7.78;1.92;;;;;;;11.46;100.00;99298.69;5135722;27;20071;-75
2022/10/02 03:10:28;;;;;;;4.38;1.75;;;;;;;11.55;100.00;99332.97;5137360;27;20055;-75
2022/10/02 03:13:04;;;;;;;7.63;1.65;;;;;;;11.29;100.00;99307.03;5147435;27;20107;-75
2022/10/02 03:15:43;;;;;;;11.32;1.92;;;;;;;11.54;100.00;99322.25;5144807;27;20043;-75
2022/10/02 03:18:32;;;;;;;11.55;1.95;;;;;;;11.55;100.00;99326.66;5149488;27;20055;-75
2022/10/02 03:21:09;;;;;;;17.55;1.70;;;;;;;11.41;100.00;99320.16;5132447;27;20053;-78
2022/10/02 03:23:44;;;;;;;8.85;1.73;;;;;;;11.44;100.00;99319.78;5141804;27;20054;-75
2022/10/02 03:26:16;;;;;;;6.25;1.38;;;;;;;11.41;100.00;99309.28;5137775;27;20050;-75
2022/10/02 03:28:49;;;;;;;6.35;1.55;;;;;;;11.48;100.00;99305.63;5148989;27;20057;-75
2022/10/02 03:31:19;;;;;;;10.77;1.67;;;;;;;11.32;100.00;99292.19;5147909;27;20125;-75
2022/10/02 03:33:47;;;;;;;4.25;1.63;;;;;;;11.34;100.00;99298.31;5147069;27;20502;-75
2022/10/02 03:36:16;;;;;;;9.43;1.85;;;;;;;11.44;100.00;99309.75;5146959;27;20050;-75
2022/10/02 03:38:44;;;;;;;9.45;1.42;;;;;;;11.45;100.00;99310.59;5138110;27;20363;-76
2022/10/02 03:41:11;;;;;;;8.02;2.28;;;;;;;11.34;100.00;99296.41;5140919;27;20046;-77
2022/10/02 03:43:38;;;;;;;8.75;1.70;;;;;;;11.31;100.00;99291.34;5143616;27;20051;-76
2022/10/02 03:46:05;;;;;;;9.10;2.70;;;;;;;11.46;100.00;99324.03;5148349;27;20050;-75
2022/10/02 03:48:33;;;;;;;7.88;3.50;;;;;;;11.38;100.00;99315.97;5141166;27;20410;-76
2022/10/02 03:50:59;;;;;;;10.57;2.70;;;;;;;11.38;100.00;99313.25;5148401;27;20494;-75
2022/10/02 03:53:33;;;;;;;10.13;2.33;;;;;;;11.39;100.00;99314.06;5141311;27;20502;-76
2022/10/02 03:56:04;;;;;;;11.35;1.98;;;;;;;11.43;100.00;99323.56;5148524;27;20043;-76
2022/10/02 03:58:32;;;;;;;13.45;2.15;;;;;;;11.34;100.00;99320.09;5147775;27;20053;-75
2022/10/02 04:01:07;;;;;;;9.10;1.83;;;;;;;11.28;100.00;99313.50;5139090;27;20094;-75
2022/10/02 04:03:39;;;;;;;6.10;1.67;;;;;;;11.35;100.00;99310.88;5153163;27;20505;-75
2022/10/02 04:06:12;;;;;;;9.85;1.90;;;;;;;11.42;100.00;99319.97;5143072;27;20051;-75
2022/10/02 04:08:45;;;;;;;7.68;1.90;;;;;;;11.42;100.00;99330.88;5141478;27;20501;-75
2022/10/02 04:11:17;;;;;;;13.00;1.98;;;;;;;11.37;100.00;99337.94;5143119;27;20043;-75
2022/10/02 04:13:48;;;;;;;9.20;2.05;;;;;;;11.32;100.00;99327.56;5142976;27;20050;-75
2022/10/02 04:16:18;;;;;;;7.82;2.15;;;;;;;11.37;100.00;99335.19;5152741;27;20086;-75
2022/10/02 04:18:54;;;;;;;7.50;1.73;;;;;;;11.31;100.00;99320.44;5151304;27;20050;-76
2022/10/02 04:21:33;;;;;;;6.35;2.05;;;;;;;11.27;100.00;99317.25;5145610;27;20047;-75
2022/10/02 04:24:09;;;;;;;13.40;2.47;;;;;;;11.36;100.00;99309.84;5142345;27;20054;-76
2022/10/02 04:26:40;;;;;;;11.82;2.15;;;;;;;11.30;100.00;99319.59;5148869;27;20046;-75
2022/10/02 04:29:15;;;;;;;11.10;2.08;;;;;;;11.33;100.00;99312.94;5146504;27;20042;-75
2022/10/02 04:31:42;;;;;;;11.02;1.90;;;;;;;11.56;100.00;99326.50;5153203;27;20053;-75
2022/10/02 04:34:13;;;;;;;6.75;1.80;;;;;;;11.43;100.00;99304.50;5147598;27;20103;-75
2022/10/02 04:36:49;;;;;;;9.88;1.88;;;;;;;11.41;100.00;99312.00;5148482;27;20035;-75
2022/10/02 04:39:33;;;;;;;10.02;2.72;;;;;;;11.36;100.00;99309.00;5149234;27;20066;-75
2022/10/02 04:42:15;;;;;;;15.60;2.38;;;;;;;11.49;100.00;99331.81;5145187;27;20058;-75
2022/10/02 04:44:59;;;;;;;12.35;2.38;;;;;;;11.34;100.00;99304.59;5149678;27;20498;-75
2022/10/02 04:47:50;;;;;;;10.70;2.45;;;;;;;11.50;100.00;99332.66;5143519;27;20066;-75
2022/10/02 04:50:36;;;;;;;10.82;2.65;;;;;;;11.35;100.00;99305.44;5148441;27;20089;-75
2022/10/02 04:53:34;;;;;;;12.90;2.20;;;;;;;11.40;100.00;99323.94;5146102;27;20142;-77
2022/10/02 04:56:26;;;;;;;14.00;3.00;;;;;;;11.32;100.00;99312.09;5150107;27;20039;-75
2022/10/02 04:59:14;;;;;;;10.68;2.25;;;;;;;11.43;100.00;99329.84;5146960;27;20057;-75
2022/10/02 05:01:55;;;;;;;13.95;2.30;;;;;;;11.42;100.00;99319.16;5145926;27;20503;-75
2022/10/02 05:04:42;;;;;;;10.70;2.38;;;;;;;11.47;100.00;99317.56;5146463;27;20051;-75
2022/10/02 05:07:32;;;;;;;8.45;2.53;;;;;;;11.58;100.00;99334.47;5143045;27;20072;-75
2022/10/02 05:10:01;;;;;;;;;;;;;;;11.62;100.00;99346.66;5149100;27;20058;-75
2022/10/02 05:12:42;;;;;;;11.07;1.95;;;;;;;11.49;100.00;99315.47;5139345;27;19942;-75
2022/10/02 05:15:26;;;;;;;10.48;2.30;;;;;;;11.51;100.00;99327.03;5147389;27;20039;-75
2022/10/02 05:18:20;;;;;;;9.20;1.92;;;;;;;11.46;100.00;99310.41;5144752;27;20054;-75
2022/10/02 05:21:05;;;;;;;8.07;1.80;;;;;;;11.48;100.00;99321.13;5140256;27;20047;-75
2022/10/02 05:23:46;;;;;;;13.88;3.58;;;;;;;11.51;100.00;99318.84;5145761;27;20057;-75
2022/10/02 05:26:35;;;;;;;7.15;1.77;;;;;;;11.45;100.00;99307.88;5149207;27;20043;-75
2022/10/02 05:29:16;;;;;;;9.82;2.13;;;;;;;11.51;100.00;99323.47;5141654;27;20054;-75
2022/10/02 05:31:57;;;;;;;12.40;1.92;;;;;;;11.60;100.00;99343.28;5147094;27;20046;-75
2022/10/02 05:34:46;;;;;;;12.35;1.83;;;;;;;11.51;100.00;99321.56;5143937;27;20043;-75
2022/10/02 05:37:27;;;;;;;6.25;1.65;;;;;;;11.50;100.00;99329.94;5138556;27;20042;-75
2022/10/02 05:40:01;;;;;;;12.40;2.03;;;;;;;11.52;100.00;99336.06;5151388;27;20062;-75
2022/10/02 05:42:32;;;;;;;11.45;2.55;;;;;;;11.48;100.00;99313.78;5144875;27;20047;-76
2022/10/02 05:45:03;;;;;;;9.77;1.60;;;;;;;11.50;100.00;99329.94;5149617;27;20508;-75
2022/10/02 05:47:35;;;;;;;3.30;1.50;;;;;;;11.47;100.00;99313.97;5140005;27;20043;-75
2022/10/02 05:50:14;;;;;;;10.73;2.42;;;;;;;11.55;100.00;99318.47;5144064;27;20057;-75
2022/10/02 05:52:46;;;;;;;9.85;1.88;;;;;;;11.58;100.00;99331.75;5141648;27;20046;-75
2022/10/02 05:55:19;;;;;;;13.35;2.67;;;;;;;11.52;100.00;99323.28;5146059;27;20038;-75
2022/10/02 05:57:50;;;;;;;6.95;1.70;;;;;;;11.52;100.00;99325.16;5145748;27;20134;-75
2022/10/02 06:00:27;;;;;;;8.52;2.00;;;;;;;11.44;100.00;99334.25;5140777;27;20055;-75
2022/10/02 06:03:06;;;;;;;10.88;2.40;;;;;;;11.55;100.00;99354.75;5146399;27;20050;-75
2022/10/02 06:05:44;;;;;;;7.32;2.28;;;;;;;11.47;100.00;99343.91;5142886;27;20409;-75
2022/10/02 06:08:14;;;;;;;7.72;2.42;;;;;;;11.48;100.00;99340.16;5139099;27;20058;-75
2022/10/02 06:10:45;;;;;;;;;;;;;;;11.63;100.00;99360.09;5143860;27;20508;-75
2022/10/02 06:13:19;;;;;;;9.27;2.85;;;;;;;11.59;100.00;99355.19;5148687;27;19926;-75
2022/10/02 06:15:51;;;;;;;8.18;4.25;;;;;;;11.54;100.00;99346.75;5144779;27;20056;-75
2022/10/02 06:18:21;;;;;;;8.00;4.43;;;;;;;11.42;100.00;99330.03;5142950;27;20047;-76
2022/10/02 06:20:52;;;;;;;16.88;4.55;;;;;;;11.46;100.00;99342.25;5138487;27;20135;-75
2022/10/02 06:23:22;;;;;;;8.30;2.90;;;;;;;11.42;100.00;99330.03;5132923;27;20067;-75
2022/10/02 06:25:53;;;;;;;11.32;2.85;;;;;;;11.50;100.00;99341.69;5143385;27;20046;-76
2022/10/02 06:28:25;;;;;;;11.18;3.05;;;;;;;11.51;100.00;99337.91;5140628;27;20069;-75
2022/10/02 06:31:00;;;;;;;11.35;2.95;;;;;;;11.49;100.00;99320.09;5140206;27;20231;-75
2022/10/02 06:33:30;;;;;;;6.20;2.65;;;;;;;11.59;100.00;99334.28;5141094;27;20057;-75
2022/10/02 06:36:14;;;;;;;;;;;;;;;11.63;100.00;99340.19;5131618;27;20046;-75
2022/10/02 06:39:00;;;;;;;4.85;2.47;;;;;;;11.49;100.00;99325.53;5135678;27;19926;-75
2022/10/02 06:41:33;;;;;;;8.32;2.53;;;;;;;11.60;100.00;99327.78;5137677;27;20035;-75
2022/10/02 06:44:15;;;;;;;9.07;2.25;;;;;;;11.55;100.00;99332.09;5139358;27;20051;-75
2022/10/02 06:46:51;;;;;;;8.98;1.83;;;;;;;11.63;100.00;99340.19;5144401;27;20062;-75
2022/10/02 06:49:30;;;;;;;12.35;2.60;;;;;;;11.50;100.00;99322.63;5143237;27;20047;-75
2022/10/02 06:52:12;;;;;;;7.07;1.92;;;;;;;11.59;100.00;99338.84;5137708;27;20047;-75
2022/10/02 06:55:00;;;;;;;9.77;1.90;;;;;;;11.53;100.00;99335.00;5134197;27;20042;-76
2022/10/02 06:57:41;;;;;;;8.50;1.98;;;;;;;11.52;100.00;99326.00;5131680;27;20117;-75
2022/10/02 07:00:11;;;;;;;5.18;2.25;;;;;;;11.73;100.00;99327.13;5132338;27;20055;-76
2022/10/02 07:02:56;;;;;;;7.22;2.08;;;;;;;11.55;100.00;99304.84;5150798;27;20047;-75
2022/10/02 07:05:52;;;;;;;10.10;1.90;;;;;;;11.61;100.00;99302.25;5145632;27;20046;-75
2022/10/02 07:08:28;;;;;;;5.70;1.70;;;;;;;11.61;100.00;99296.81;5140972;27;20361;-75
2022/10/02 07:11:03;;;;;;;9.55;2.13;;;;;;;11.62;100.00;99295.78;5147131;27;20050;-75
2022/10/02 07:13:41;;;;;;;5.80;1.55;;;;;;;11.69;100.00;99295.84;5143217;27;20047;-75
2022/10/02 07:16:26;;;;;;;9.57;1.40;;;;;;;11.78;100.00;99310.22;5146175;27;20043;-75
2022/10/02 07:19:11;;;;;;;8.98;1.77;;;;;;;11.67;100.00;99282.44;5147447;27;20062;-76
2022/10/02 07:21:49;;;;;;;6.88;1.67;;;;;;;11.63;100.00;99283.84;5148889;27;20044;-76
2022/10/02 07:24:32;;;;;;;7.43;1.70;;;;;;;11.72;100.00;99289.19;5131834;27;20058;-75
2022/10/02 07:27:05;;;;;;;10.13;2.05;;;;;;;11.75;100.00;99278.75;5140087;27;20049;-75
2022/10/02 07:29:47;;;;;;;7.88;2.10;;;;;;;11.93;100.00;99297.44;5151754;27;20046;-75
2022/10/02 07:32:38;;;;;;;5.07;1.90;;;;;;;11.99;100.00;99285.78;5144888;27;20046;-75
2022/10/02 07:35:23;;;;;;;8.48;2.17;;;;;;;11.90;100.00;99250.66;5132214;27;20058;-75
2022/10/02 07:38:03;;;;;;;3.83;1.70;;;;;;;11.86;100.00;99267.38;5134826;27;20062;-75
2022/10/02 07:40:37;;;;;;;9.50;2.17;;;;;;;11.89;100.00;99254.41;5136790;27;20055;-75
2022/10/02 07:43:31;;;;;;;6.57;2.10;;;;;;;11.79;100.00;99258.28;5138206;27;20046;-75
2022/10/02 07:46:10;;;;;;;3.17;1.50;;;;;;;11.77;100.00;99270.41;5149671;27;20043;-75
2022/10/02 07:48:56;;;;;;;7.18;2.28;;;;;;;11.80;100.00;99272.75;5152253;27;20044;-75
2022/10/02 07:51:47;;;;;;;4.68;1.73;;;;;;;11.90;100.00;99286.06;5136000;27;20486;-75
2022/10/02 07:54:41;;;;;;;5.00;2.08;;;;;;;11.88;100.00;99275.38;5136192;27;20104;-75
2022/10/02 07:57:21;;;;;;;6.28;1.73;;;;;;;11.80;100.00;99265.44;5140426;27;20042;-75
2022/10/02 07:59:51;;;;;;;3.08;1.60;;;;;;;11.99;100.00;99295.84;5154729;27;20070;-75
2022/10/02 08:02:26;;;;;;;7.72;2.05;;;;;;;12.01;100.00;99280.16;5154476;27;20107;-75
2022/10/02 08:04:57;;;;;;;2.25;1.30;;;;;;;11.88;100.00;99253.56;5134457;27;20054;-75
2022/10/02 08:07:24;;;;;;;2.67;1.48;;;;;;;12.06;100.00;99271.41;5166985;27;20049;-76
2022/10/02 08:09:53;;;;;;;5.72;1.42;;;;;;;12.08;100.00;99272.91;5173861;27;20054;-76
2022/10/02 08:12:27;;;;;;;6.18;1.40;;;;;;;12.08;100.00;99291.16;5156962;27;20053;-75
2022/10/02 08:14:57;;;;;;;3.22;1.05;;;;;;;11.93;100.00;99274.81;5152876;27;20400;-75
2022/10/02 08:17:32;;;;;;;2.53;1.10;;;;;;;12.09;100.00;99284.63;5152399;27;20053;-75
2022/10/02 08:20:04;;;;;;;4.47;1.35;;;;;;;11.99;100.00;99258.53;5148247;27;20401;-75
2022/10/02 08:22:36;;;;;;;3.65;1.20;;;;;;;11.99;100.00;99253.09;5151309;27;20398;-75
2022/10/02 08:25:14;;;;;;;4.60;1.50;;;;;;;12.02;100.00;99249.97;5152798;27;20051;-75
2022/10/02 08:27:50;;;;;;;3.40;1.40;;;;;;;12.09;100.00;99246.50;5139645;27;20039;-75
2022/10/02 08:30:17;;;;;;;2.25;1.20;;;;;;;12.18;100.00;99246.19;5133608;27;20070;-76
2022/10/02 08:32:46;;;;;;;6.57;1.58;;;;;;;12.14;100.00;99220.34;5146744;27;20057;-75
2022/10/02 08:35:14;;;;;;;5.45;1.35;;;;;;;12.15;100.00;99222.03;5149327;27;20074;-75
2022/10/02 08:37:53;;;;;;;4.38;1.35;;;;;;;12.16;100.00;99222.88;5151726;27;20050;-75
2022/10/02 08:40:45;;;;;;;3.47;1.27;;;;;;;12.10;100.00;99243.56;5144350;27;20095;-75
2022/10/02 08:43:47;;;;;;;5.68;1.35;;;;;;;12.29;100.00;99255.72;5131197;27;20043;-75
2022/10/02 08:46:57;;;;;;;1.92;1.38;;;;;;;12.26;100.00;99253.41;5129042;27;20402;-75
2022/10/02 08:50:00;;;;;;;3.85;1.40;;;;;;;12.15;100.00;99223.91;5131614;27;20051;-75
2022/10/02 08:53:13;;;;;;;8.85;1.92;;;;;;;12.12;100.00;99221.56;5130305;27;20520;-76
2022/10/02 08:56:06;;;;;;;5.50;1.67;;;;;;;12.19;100.00;99241.56;5145461;27;20046;-75
2022/10/02 08:58:58;;;;;;;5.22;1.73;;;;;;;12.16;100.00;99263.75;5151952;27;20050;-75
2022/10/02 09:01:57;;;;;;;5.55;2.38;;;;;;;12.17;100.00;99225.41;5152220;27;20478;-75
2022/10/02 09:04:53;;;;;;;2.80;2.30;;;;;;;12.43;100.00;99264.06;5144486;27;20053;-75
2022/10/02 09:07:57;;;;;;;6.38;1.98;;;;;;;12.31;100.00;99283.63;5149977;27;22080;-78
2022/10/02 09:10:52;;;;;;;5.75;1.60;;;;;;;12.16;100.00;99264.63;5140792;27;20495;-76
2022/10/02 09:14:01;;;;;;;4.93;1.95;;;;;;;12.18;100.00;99264.44;5144207;27;20501;-76
2022/10/02 09:16:33;;;;;;;5.77;1.90;;;;;;;12.07;100.00;99282.09;5151096;27;20115;-76
2022/10/02 09:19:02;;;;;;;5.43;1.55;;;;;;;12.07;100.00;99246.69;5151370;27;20049;-77
2022/10/02 09:21:55;;;;;;;7.00;1.80;;;;;;;12.15;100.00;99234.81;5151453;27;20088;-76
2022/10/02 09:24:48;;;;;;;6.57;3.08;;;;;;;12.23;100.00;99248.34;5137554;27;20051;-75
2022/10/02 09:27:43;;;;;;;4.47;1.42;;;;;;;12.46;100.00;99245.41;5135860;27;20047;-75
2022/10/02 09:30:25;;;;;;;2.08;1.25;;;;;;;12.45;100.00;99253.78;5142986;27;20111;-75
2022/10/02 09:33:35;;;;;;;3.05;1.40;;;;;;;12.28;100.00;99232.22;5150601;27;20064;-76
2022/10/02 09:36:30;;;;;;;6.22;1.35;;;;;;;12.40;100.00;99229.81;5149957;27;20402;-76
2022/10/02 09:39:32;;;;;;;4.20;1.83;;;;;;;12.41;100.00;99247.88;5147983;27;20494;-75
2022/10/02 09:42:34;;;;;;;2.78;1.40;;;;;;;12.47;100.00;99254.44;5114865;27;20047;-75
2022/10/02 09:45:42;;;;;;;3.42;2.70;;;;;;;12.51;100.00;99244.81;5143215;27;20039;-76
2022/10/02 09:48:39;;;;;;;3.30;2.10;;;;;;;12.62;100.00;99219.75;5144374;27;20063;-75
2022/10/02 09:51:54;;;;;;;1.90;1.55;;;;;;;12.53;100.00;99218.22;5150730;27;20107;-76
2022/10/02 09:55:09;;;;;;;2.70;1.63;;;;;;;12.80;100.00;99232.09;5117332;27;20042;-75
2022/10/02 09:58:30;;;;;;;3.03;1.48;;;;;;;12.73;100.00;99207.47;5150831;27;20053;-75
2022/10/02 10:01:17;;;;;;;;;;;;;;;12.89;100.00;99239.06;5103950;28;20561;-75
2022/10/02 10:04:11;;;;;;;2.03;1.15;;;;;;;12.70;100.00;99235.97;5093822;28;19920;-76
2022/10/02 10:07:22;;;;;;;2.50;0.98;;;;;;;12.66;100.00;99244.75;5120605;27;20096;-75
2022/10/02 10:10:23;;;;;;;1.63;1.30;;;;;;;12.79;100.00;99272.13;5134393;27;20061;-75
2022/10/02 10:13:42;;;;;;;2.22;1.40;;;;;;;12.72;100.00;99253.00;5149805;27;20050;-76
2022/10/02 10:16:40;;;;;;;2.67;1.98;;;;;;;12.86;100.00;99250.38;5065968;28;20484;-75
2022/10/02 10:19:36;;;;;;;2.33;1.67;;;;;;;12.83;100.00;99218.03;5150278;27;20053;-76
2022/10/02 10:22:31;;;;;;;2.72;1.80;;;;;;;12.78;100.00;99205.00;5141588;27;20406;-76
2022/10/02 10:25:30;;;;;;;2.33;1.40;;;;;;;12.64;100.00;99220.38;5141950;27;20345;-75
2022/10/02 10:28:25;;;;;;;3.60;1.17;;;;;;;12.67;100.00;99266.38;5107292;27;20047;-75
2022/10/02 10:31:32;;;;;;;3.22;2.08;;;;;;;12.44;100.00;99233.03;5128893;27;20051;-75
2022/10/02 10:34:37;;;;;;;4.00;2.15;;;;;;;12.62;100.00;99265.28;5106283;27;20078;-76
2022/10/02 10:40:20;;;;;;;3.75;2.38;;;;;;;12.68;100.00;99262.59;5143311;27;20054;-76
2022/10/02 10:43:19;;;;;;;3.67;2.30;;;;;;;12.62;100.00;99240.75;5146527;27;20050;-76
2022/10/02 10:46:16;;;;;;;4.15;2.40;;;;;;;12.52;100.00;99236.44;5143627;27;20051;-75
2022/10/02 10:49:08;;;;;;;1.50;1.40;;;;;;;12.62;100.00;99227.09;5148271;27;20500;-75
2022/10/02 10:51:44;;;;;;;2.10;1.80;;;;;;;12.67;100.00;99222.72;5142448;27;20051;-76
2022/10/02 10:54:47;;;;;;;2.28;1.45;;;;;;;12.81;100.00;99261.03;5130676;27;20042;-75
2022/10/02 10:57:28;;;;;;;6.47;1.70;;;;;;;12.60;100.00;99278.25;5142582;27;20050;-75
2022/10/02 11:00:10;;;;;;;3.25;1.58;;;;;;;12.47;100.00;99243.53;5140549;27;20531;-75
2022/10/02 11:03:06;;;;;;;10.98;4.53;;;;;;;12.67;100.00;99273.72;5148956;27;20043;-75
2022/10/02 11:06:10;;;;;;;9.15;6.63;;;;;;;12.78;100.00;99264.16;5147046;27;20378;-75
2022/10/02 11:09:04;;;;;;;2.63;1.30;;;;;;;12.55;100.00;99246.94;5143015;27;20126;-75
2022/10/02 11:11:40;;;;;;;2.70;1.10;;;;;;;12.77;100.00;99276.09;5147005;27;20047;-76
2022/10/02 11:14:25;;;;;;;1.25;1.13;;;;;;;12.57;100.00;99265.88;5139711;27;20038;-75
2022/10/02 11:17:28;;;;;;;3.28;1.88;;;;;;;12.63;100.00;99262.38;5150965;27;20526;-75
2022/10/02 11:20:23;;;;;;;7.93;2.90;;;;;;;12.64;100.00;99285.84;5153972;27;20486;-76
2022/10/02 11:23:23;;;;;;;3.85;1.67;;;;;;;12.68;100.00;99287.16;5152891;27;20138;-76
2022/10/02 11:26:04;;;;;;;2.80;1.20;;;;;;;12.80;100.00;99279.28;5119018;27;20507;-75
2022/10/02 11:29:04;;;;;;;1.35;0.88;;;;;;;12.75;100.00;99271.69;5147627;27;20046;-75
2022/10/02 11:31:48;;;;;;;3.03;1.27;;;;;;;12.75;100.00;99258.06;5141688;27;20053;-75
2022/10/02 11:34:39;;;;;;;3.85;1.25;;;;;;;12.94;100.00;99263.88;5146498;27;20043;-76
2022/10/02 11:37:23;;;;;;;1.60;0.70;;;;;;;13.13;100.00;99261.47;5132430;27;20058;-75
2022/10/02 11:40:18;;;;;;;3.35;1.75;;;;;;;12.95;100.00;99251.06;5137773;27;20548;-75
2022/10/02 11:42:57;;;;;;;1.73;1.02;;;;;;;12.81;100.00;99252.84;5127292;27;20051;-75
2022/10/02 11:45:54;;;;;;;1.05;0.43;;;;;;;12.84;100.00;99247.00;5146826;27;20051;-76
2022/10/02 11:48:42;;;;;;;0.77;0.68;;;;;;;12.89;100.00;99231.72;5146514;27;20734;-76
2022/10/02 11:51:34;;;;;;;0.40;0.40;;;;;;;12.95;100.00;99242.88;5152956;27;20062;-76
2022/10/02 11:54:18;;;;;;;1.00;0.70;;;;;;;12.94;100.00;99261.13;5136609;27;20050;-76
2022/10/02 11:57:06;;;;;;;2.05;1.20;;;;;;;13.04;100.00;99261.63;5134421;27;20055;-75
2022/10/02 12:00:05;;;;;;;1.15;0.75;;;;;;;13.17;100.00;99247.25;5148858;27;20097;-76
2022/10/02 12:02:37;;;;;;;0.88;0.68;;;;;;;13.44;100.00;99282.94;5131863;27;20043;-75
2022/10/02 12:05:20;;;;;;;0.77;0.50;;;;;;;13.22;100.00;99247.50;5153037;27;20500;-75
2022/10/02 12:08:00;;;;;;;0.60;0.40;;;;;;;13.27;100.00;99261.38;5153275;27;20042;-75
2022/10/02 12:10:38;;;;;;;;;;;;;;;13.22;100.00;99265.75;5154346;27;20103;-76
2022/10/02 12:13:25;;;;;;;1.13;0.70;;;;;;;13.00;100.00;99238.50;5137289;27;20078;-76
2022/10/02 12:16:02;;;;;;;0.85;0.70;;;;;;;13.25;100.00;99265.38;5154285;27;20474;-76
2022/10/02 12:18:42;;;;;;;1.25;0.90;;;;;;;13.13;100.00;99231.44;5146204;27;20053;-76
2022/10/02 12:27:35;;;;;;;0.98;0.47;;;;;;;13.49;100.00;99231.31;5151660;27;20106;-76
2022/10/02 12:30:07;;;;;;;1.15;0.85;;;;;;;13.47;100.00;99249.75;5152654;27;20058;-76
2022/10/02 12:32:48;;;;;;;1.33;0.45;;;;;;;13.42;100.00;99244.91;5151943;27;20039;-76
2022/10/02 12:35:30;;;;;;;0.45;0.45;;;;;;;13.37;100.00;99255.59;5153387;27;20481;-77